Pagrindinis puslapis
METAR-TAF:

METAR-TAF

Oro uostai :

Leknes, Norvegija

platuma: 68-09N, ilguma: 013-37E, Aukštis: 2 m

Dabartinis oras

Ataskaita buvo paskelbta 6 valandos ir 1 minutes, ne 18:20 UTC
Vėjas 7 kt iš Pietų/Pietvakarių
Temperatūra 15°C
Drėgmė 94%
Slėgis 1007 hPa
Matomumas 10 km arba daugiau
Mažai debesys ne aukštis 500 ft
Su prošvaistėmis ne aukštis 7500 ft

METAR: ENLK 021820Z 20007KT 9999 FEW005 BKN075 15/14 Q1007

Laikas: 02:21 (00:21 UTC)


TAF: trūkstamas

Orai ataskaitas ir orų prognozės (METAR, TAF).

turimą stotys yra geltonos ir raudonos taškus žemėlapyje.

Perkelti pele per norėdami pamatyti stoties vardą.

Tada spustelėkite, norėdami matyti oro stebėjimo ir prognozės.

Norėdami pakeisti žemėlapį: spustelėkite ant žalios mygtukų su juodo kryžiaus žemyn,; žalią mygtuką su brūkšneliu, jei norite nutolinti; arba žalių rodyklių gretimoms žemėlapius.


METAR-TAF: